Time;durP1;ratioP1;P1;durP2;ratioP2;P2;SDS_P1;SDS_P2;PMS_P1;PMS_P2;Temp;Humidity;BMP_temperature;BMP_pressure;BME280_temperature;BME280_humidity;BME280_pressure;Samples;Min_cycle;Max_cycle;Signal;HPM_P1;HPM_P2
2021/06/03 05:02:42;;;;;;;4.10;2.55;;;17.60;92.10;;;;;;4951896;28;20086;-82
2021/06/03 05:05:10;;;;;;;5.28;2.80;;;17.60;92.40;;;;;;4957087;29;20508;-82
2021/06/03 05:07:37;;;;;;;4.30;2.70;;;17.50;92.50;;;;;;4957458;29;20063;-82
2021/06/03 05:10:06;;;;;;;4.35;2.50;;;17.50;92.50;;;;;;4957321;29;20051;-79
2021/06/03 05:12:34;;;;;;;3.92;2.40;;;17.50;92.70;;;;;;4957281;29;20101;-79
2021/06/03 05:15:01;;;;;;;4.75;2.50;;;17.50;92.90;;;;;;4956956;29;20454;-80
2021/06/03 05:17:28;;;;;;;3.47;2.13;;;17.60;93.10;;;;;;4945989;29;20074;-80
2021/06/03 05:19:56;;;;;;;3.72;2.08;;;17.60;93.20;;;;;;4951537;29;20135;-80
2021/06/03 05:22:23;;;;;;;3.83;2.22;;;17.80;93.10;;;;;;4946945;29;20090;-79
2021/06/03 05:24:50;;;;;;;3.72;2.25;;;17.90;93.00;;;;;;4945875;29;20040;-79
2021/06/03 05:27:16;;;;;;;4.13;2.20;;;18.00;92.90;;;;;;4954739;28;20086;-79
2021/06/03 05:29:43;;;;;;;4.85;2.42;;;18.20;92.90;;;;;;4956831;29;20077;-79
2021/06/03 05:32:10;;;;;;;4.00;2.42;;;18.30;92.80;;;;;;4957153;28;20051;-79
2021/06/03 05:34:36;;;;;;;4.10;2.33;;;18.40;92.70;;;;;;4957066;29;20047;-79
2021/06/03 05:37:05;;;;;;;4.20;2.50;;;18.50;92.60;;;;;;4956242;29;20087;-79
2021/06/03 05:39:32;;;;;;;4.00;2.28;;;18.60;92.40;;;;;;4956896;29;20078;-79
2021/06/03 05:41:59;;;;;;;4.43;2.30;;;18.70;92.30;;;;;;4956522;29;20058;-78
2021/06/03 05:44:26;;;;;;;4.10;2.60;;;18.80;92.00;;;;;;4956219;28;20515;-79
2021/06/03 05:46:53;;;;;;;4.63;2.33;;;18.80;92.00;;;;;;4987703;23;20059;-80
2021/06/03 05:49:19;;;;;;;3.70;2.25;;;18.90;91.90;;;;;;4955021;29;20063;-79
2021/06/03 05:51:47;;;;;;;4.25;2.30;;;18.90;91.70;;;;;;4954742;29;20134;-79
2021/06/03 05:54:15;;;;;;;4.15;2.00;;;19.00;91.50;;;;;;4937684;29;20134;-79
2021/06/03 05:56:44;;;;;;;3.55;2.33;;;19.10;91.30;;;;;;4944957;29;20130;-78
2021/06/03 05:59:13;;;;;;;3.55;2.20;;;19.10;91.20;;;;;;4952080;29;20083;-79
2021/06/03 06:01:40;;;;;;;3.40;2.10;;;19.20;91.20;;;;;;4953762;29;20043;-79
2021/06/03 06:06:50;;;;;;;3.17;2.00;;;19.30;91.50;;;;;;4938914;29;20051;-79
2021/06/03 06:09:19;;;;;;;3.75;2.15;;;19.40;91.60;;;;;;4955106;28;20145;-81
2021/06/03 06:11:46;;;;;;;3.60;2.10;;;19.40;91.50;;;;;;4956398;29;20043;-80
2021/06/03 06:14:13;;;;;;;4.03;2.15;;;19.50;91.50;;;;;;4955734;28;20098;-80
2021/06/03 06:16:40;;;;;;;4.57;2.22;;;19.60;91.50;;;;;;4949628;29;20043;-81
2021/06/03 06:19:10;;;;;;;4.10;2.10;;;19.60;91.40;;;;;;4955649;29;20134;-81
2021/06/03 06:21:37;;;;;;;3.95;2.30;;;19.70;91.40;;;;;;4954420;29;20065;-80
2021/06/03 06:24:06;;;;;;;4.00;2.35;;;19.80;91.40;;;;;;4955665;29;20043;-80
2021/06/03 06:26:35;;;;;;;5.22;2.33;;;19.80;91.40;;;;;;4947974;29;20043;-80
2021/06/03 06:29:02;;;;;;;3.70;2.35;;;19.80;91.40;;;;;;4956045;29;20065;-80
2021/06/03 06:31:29;;;;;;;4.65;2.38;;;19.90;91.60;;;;;;4955447;29;20129;-80
2021/06/03 06:33:56;;;;;;;4.20;2.08;;;19.90;91.80;;;;;;4955622;29;20079;-79
2021/06/03 06:36:24;;;;;;;3.85;2.28;;;19.90;92.00;;;;;;4938340;29;20489;-79
2021/06/03 06:38:51;;;;;;;3.90;2.13;;;19.90;92.10;;;;;;4955311;29;20047;-78
2021/06/03 06:41:41;;;;;;;3.67;1.95;;;20.00;92.20;;;;;;5161637;23;20142;-80
2021/06/03 06:44:08;;;;;;;3.88;2.00;;;20.00;92.10;;;;;;4958991;28;20109;-78
2021/06/03 06:46:34;;;;;;;5.18;2.10;;;20.00;92.00;;;;;;4966545;28;20063;-78
2021/06/03 06:49:01;;;;;;;3.13;1.70;;;20.10;91.90;;;;;;4966868;28;20050;-78
2021/06/03 06:51:28;;;;;;;4.65;2.55;;;20.20;91.90;;;;;;4964239;28;20559;-78
2021/06/03 06:53:57;;;;;;;10.13;5.93;;;20.20;92.20;;;;;;4963641;28;20465;-78
2021/06/03 06:56:24;;;;;;;25.95;15.48;;;20.20;91.90;;;;;;4965951;28;20552;-78
2021/06/03 06:58:52;;;;;;;16.17;9.88;;;20.30;91.80;;;;;;4957379;28;20082;-78
2021/06/03 07:01:19;;;;;;;6.00;3.47;;;20.40;92.00;;;;;;4935002;28;20070;-78
2021/06/03 07:03:45;;;;;;;4.15;2.47;;;20.40;92.10;;;;;;4937409;28;20131;-79
2021/06/03 07:06:12;;;;;;;4.35;2.40;;;20.40;92.40;;;;;;4954163;28;20560;-79
2021/06/03 07:08:39;;;;;;;4.72;2.22;;;20.40;92.10;;;;;;4954932;28;20588;-78
2021/06/03 07:11:05;;;;;;;3.55;2.20;;;20.50;92.30;;;;;;4939930;28;20047;-78
2021/06/03 07:13:32;;;;;;;3.40;2.00;;;20.50;92.40;;;;;;4937089;28;20131;-78
2021/06/03 07:16:00;;;;;;;4.00;2.28;;;20.40;92.50;;;;;;4941981;28;20058;-78
2021/06/03 07:18:27;;;;;;;4.80;2.40;;;20.40;92.70;;;;;;4943800;28;20059;-78
2021/06/03 07:20:53;;;;;;;5.35;2.80;;;20.40;92.80;;;;;;4954327;29;20130;-78
2021/06/03 07:23:21;;;;;;;4.30;2.60;;;20.40;93.00;;;;;;4955392;29;20504;-78
2021/06/03 07:25:48;;;;;;;3.67;2.10;;;20.40;93.10;;;;;;4954873;28;20052;-78
2021/06/03 07:28:14;;;;;;;5.40;2.35;;;20.40;93.00;;;;;;4952798;28;20047;-79
2021/06/03 07:30:41;;;;;;;4.72;2.42;;;20.40;93.10;;;;;;4945017;28;20134;-79
2021/06/03 07:33:09;;;;;;;3.97;2.00;;;20.50;93.20;;;;;;4939597;29;20098;-79
2021/06/03 07:35:36;;;;;;;4.85;2.22;;;20.50;93.10;;;;;;4939501;29;20134;-79
2021/06/03 07:38:04;;;;;;;4.60;2.13;;;20.50;93.10;;;;;;4948513;29;20540;-79
2021/06/03 07:40:35;;;;;;;3.38;1.90;;;20.60;92.90;;;;;;4940187;29;20044;-79
2021/06/03 07:43:04;;;;;;;4.78;2.10;;;20.60;92.90;;;;;;5039285;23;20053;-79
2021/06/03 07:45:32;;;;;;;3.45;2.05;;;20.70;92.80;;;;;;5011927;28;20096;-78
2021/06/03 07:47:59;;;;;;;3.85;1.92;;;20.80;92.80;;;;;;4995153;28;20082;-79
2021/06/03 07:50:31;;;;;;;3.80;1.92;;;20.80;92.80;;;;;;5014578;28;20479;-81
2021/06/03 07:52:58;;;;;;;3.53;1.90;;;20.80;92.50;;;;;;5017643;28;20056;-79
2021/06/03 07:55:25;;;;;;;3.20;1.85;;;20.80;92.10;;;;;;4997179;28;20088;-78
2021/06/03 07:57:55;;;;;;;3.47;1.77;;;20.90;91.90;;;;;;5013323;28;20132;-78
2021/06/03 08:00:25;;;;;;;3.42;1.48;;;21.00;91.70;;;;;;5013330;28;20077;-78
2021/06/03 08:02:52;;;;;;;4.05;1.85;;;21.10;91.30;;;;;;5013171;28;20601;-76
2021/06/03 08:05:21;;;;;;;3.40;1.88;;;21.20;90.80;;;;;;5013046;28;20133;-77
2021/06/03 08:07:51;;;;;;;3.28;1.63;;;21.40;90.30;;;;;;5013188;28;20140;-79
2021/06/03 08:10:22;;;;;;;4.15;1.70;;;21.50;89.20;;;;;;5004344;28;20121;-79
2021/06/03 08:12:50;;;;;;;3.30;1.80;;;21.60;88.10;;;;;;5013194;28;20533;-76
2021/06/03 08:15:17;;;;;;;3.17;1.70;;;21.60;86.70;;;;;;5010715;28;20047;-77
2021/06/03 08:17:44;;;;;;;3.63;1.88;;;21.80;87.20;;;;;;5006446;28;20124;-76
2021/06/03 08:20:14;;;;;;;4.85;2.28;;;21.80;86.20;;;;;;5012664;28;20089;-76
2021/06/03 08:22:41;;;;;;;3.05;1.63;;;21.80;85.60;;;;;;5012478;28;20480;-79
2021/06/03 08:25:11;;;;;;;3.00;1.50;;;21.90;85.40;;;;;;5013085;28;20069;-76
2021/06/03 08:27:38;;;;;;;4.22;1.83;;;21.90;85.30;;;;;;5013145;28;20092;-77
2021/06/03 08:30:08;;;;;;;4.13;1.77;;;22.00;85.10;;;;;;5012904;28;20455;-78
2021/06/03 08:32:35;;;;;;;2.72;1.60;;;22.10;85.30;;;;;;4998252;28;20129;-77
2021/06/03 08:35:02;;;;;;;3.30;1.63;;;22.10;85.60;;;;;;5013035;28;20080;-78
2021/06/03 08:37:30;;;;;;;3.53;2.00;;;22.20;85.60;;;;;;5012832;28;20133;-77
2021/06/03 08:39:56;;;;;;;4.60;2.05;;;22.30;83.70;;;;;;4999359;28;20046;-77
2021/06/03 08:42:25;;;;;;;4.00;2.00;;;22.40;83.30;;;;;;5017886;28;20078;-80
2021/06/03 08:44:53;;;;;;;4.20;1.77;;;22.40;82.90;;;;;;5018877;28;20120;-75
2021/06/03 08:47:20;;;;;;;3.65;1.63;;;22.50;82.90;;;;;;5001809;28;20133;-77
2021/06/03 08:49:47;;;;;;;5.47;1.83;;;22.60;82.30;;;;;;5003257;28;20159;-77
2021/06/03 08:52:13;;;;;;;3.97;1.85;;;22.60;81.70;;;;;;5011549;28;20069;-79
2021/06/03 08:54:40;;;;;;;3.35;1.60;;;22.60;81.00;;;;;;5015749;28;20056;-80
2021/06/03 08:57:08;;;;;;;3.17;1.60;;;22.60;81.40;;;;;;5015738;28;20054;-77
2021/06/03 08:59:36;;;;;;;3.60;1.40;;;22.60;81.50;;;;;;5014321;28;20112;-78
2021/06/03 09:02:03;;;;;;;3.85;1.50;;;22.70;81.40;;;;;;5016904;28;20563;-78
2021/06/03 09:04:30;;;;;;;3.60;1.20;;;22.70;81.00;;;;;;5016445;28;20547;-77
2021/06/03 09:06:57;;;;;;;2.75;1.45;;;22.70;80.60;;;;;;5017446;28;20081;-80
2021/06/03 09:09:26;;;;;;;4.22;1.80;;;22.80;80.30;;;;;;5016350;28;20130;-82
2021/06/03 09:12:14;;;;;;;3.53;1.75;;;22.80;79.40;;;;;;5017008;28;20045;-82
2021/06/03 09:14:42;;;;;;;2.88;1.50;;;22.80;79.40;;;;;;5002394;28;20151;-78
2021/06/03 09:17:10;;;;;;;3.53;1.70;;;22.90;79.50;;;;;;4999486;28;20068;-79
2021/06/03 09:19:51;;;;;;;3.20;1.77;;;23.00;79.70;;;;;;4979179;28;20137;-80
2021/06/03 09:22:37;;;;;;;3.22;1.77;;;23.10;79.40;;;;;;5007230;28;20213;-79
2021/06/03 09:25:36;;;;;;;2.85;1.40;;;23.10;78.60;;;;;;5015604;28;20053;-77
2021/06/03 09:28:24;;;;;;;2.55;1.40;;;23.20;78.60;;;;;;4990321;28;20050;-83
2021/06/03 09:30:59;;;;;;;3.13;1.77;;;23.30;78.90;;;;;;5015520;28;20072;-78
2021/06/03 09:34:04;;;;;;;4.15;1.50;;;23.40;78.40;;;;;;5011658;28;20129;-77
2021/06/03 09:36:39;;;;;;;3.67;1.58;;;23.50;78.70;;;;;;5015041;28;20042;-77
2021/06/03 09:39:14;;;;;;;3.75;1.60;;;23.60;78.30;;;;;;5015343;28;20137;-79
2021/06/03 09:41:43;;;;;;;3.58;1.67;;;23.60;78.20;;;;;;5015437;28;20451;-80
2021/06/03 09:44:18;;;;;;;3.70;1.63;;;23.70;77.40;;;;;;5015135;28;20128;-78
2021/06/03 09:46:48;;;;;;;;;;;23.80;77.30;;;;;;5015899;28;20121;-80
2021/06/03 09:49:21;;;;;;;4.70;1.60;;;23.80;76.80;;;;;;4997509;28;19943;-76
2021/06/03 09:51:50;;;;;;;4.22;1.63;;;23.90;76.90;;;;;;5015169;28;20448;-77
2021/06/03 09:54:20;;;;;;;2.53;1.40;;;23.90;76.70;;;;;;5015097;28;20084;-78
2021/06/03 09:56:51;;;;;;;4.00;1.58;;;24.00;76.20;;;;;;5015336;28;20399;-76
2021/06/03 09:59:27;;;;;;;5.50;1.45;;;24.00;75.50;;;;;;5014884;28;20049;-81
2021/06/03 10:02:11;;;;;;;3.50;1.48;;;24.10;75.10;;;;;;5015512;28;20085;-79
2021/06/03 10:04:42;;;;;;;4.40;1.60;;;24.20;75.20;;;;;;4992461;28;20078;-80
2021/06/03 10:07:14;;;;;;;2.65;1.25;;;24.20;75.30;;;;;;5012864;28;20058;-79
2021/06/03 10:09:53;;;;;;;3.33;1.73;;;24.30;75.70;;;;;;5014801;28;20125;-78
2021/06/03 10:12:45;;;;;;;2.88;1.50;;;24.40;75.60;;;;;;4997775;28;20630;-78
2021/06/03 10:15:35;;;;;;;4.15;1.70;;;24.50;75.60;;;;;;5010358;28;20057;-79
2021/06/03 10:18:06;;;;;;;2.90;1.20;;;24.60;75.30;;;;;;5012646;28;20538;-78
2021/06/03 10:20:38;;;;;;;3.25;1.40;;;24.70;75.10;;;;;;4998921;28;20130;-79
2021/06/03 10:23:08;;;;;;;3.40;1.40;;;24.80;74.60;;;;;;5014633;28;20130;-75
2021/06/03 10:25:37;;;;;;;3.10;1.30;;;24.80;73.80;;;;;;4999666;28;20045;-76
2021/06/03 10:28:07;;;;;;;3.78;1.90;;;24.80;73.70;;;;;;5014894;28;20049;-77
2021/06/03 10:30:37;;;;;;;2.97;1.50;;;24.90;73.10;;;;;;5014396;28;20050;-77
2021/06/03 10:33:12;;;;;;;3.35;1.42;;;25.00;73.10;;;;;;5014721;28;20491;-77
2021/06/03 10:35:41;;;;;;;4.13;1.80;;;25.00;74.00;;;;;;5014814;28;20054;-78
2021/06/03 10:38:10;;;;;;;4.05;1.60;;;25.10;73.80;;;;;;5010421;28;20046;-80
2021/06/03 10:40:43;;;;;;;2.97;1.40;;;25.20;73.00;;;;;;4996360;28;20115;-77
2021/06/03 10:43:10;;;;;;;5.38;3.47;;;25.30;73.30;;;;;;5010251;28;20129;-77
2021/06/03 10:45:40;;;;;;;4.03;2.70;;;25.30;72.90;;;;;;5010825;28;20141;-78
2021/06/03 10:48:09;;;;;;;12.15;8.70;;;25.30;72.50;;;;;;5010222;28;20149;-79
2021/06/03 10:50:39;;;;;;;8.13;5.88;;;25.30;73.40;;;;;;4994580;28;20120;-77
2021/06/03 10:53:09;;;;;;;4.22;2.42;;;25.30;73.20;;;;;;5010622;28;20558;-78
2021/06/03 10:55:39;;;;;;;3.40;1.58;;;25.30;72.10;;;;;;5010672;28;20106;-79
2021/06/03 10:58:08;;;;;;;3.33;1.63;;;25.20;71.00;;;;;;5010262;28;20144;-79
2021/06/03 11:00:38;;;;;;;2.50;1.30;;;25.10;70.80;;;;;;5009685;28;20129;-78
2021/06/03 11:03:09;;;;;;;2.60;1.40;;;25.10;71.30;;;;;;5010522;28;20505;-77
2021/06/03 11:05:38;;;;;;;3.05;1.30;;;25.10;71.50;;;;;;5010411;28;20442;-78
2021/06/03 11:08:28;;;;;;;2.47;1.30;;;25.10;71.90;;;;;;5010115;28;20053;-78
2021/06/03 11:11:22;;;;;;;2.75;1.40;;;25.00;71.50;;;;;;5010272;28;20053;-78
2021/06/03 11:14:05;;;;;;;4.40;1.80;;;25.10;72.00;;;;;;4997452;28;20173;-77
2021/06/03 11:16:52;;;;;;;2.70;1.30;;;25.00;71.20;;;;;;5010118;28;20050;-78
2021/06/03 11:19:23;;;;;;;2.63;1.20;;;25.00;70.00;;;;;;5009491;28;20066;-78
2021/06/03 11:22:11;;;;;;;2.55;1.20;;;24.80;70.00;;;;;;4976508;28;20132;-78
2021/06/03 11:24:45;;;;;;;3.45;1.10;;;24.70;70.40;;;;;;5002662;28;20126;-77
2021/06/03 11:27:16;;;;;;;2.60;1.25;;;24.60;71.00;;;;;;4993319;28;20080;-79
2021/06/03 11:29:59;;;;;;;4.10;1.00;;;24.40;71.20;;;;;;4991827;28;20140;-79
2021/06/03 11:32:32;;;;;;;2.63;1.10;;;24.30;73.10;;;;;;5010439;28;20125;-78
2021/06/03 11:35:04;;;;;;;2.72;1.30;;;24.00;74.60;;;;;;5007608;28;20045;-78
2021/06/03 11:37:46;;;;;;;2.85;1.27;;;23.70;77.00;;;;;;5009813;28;20044;-80
2021/06/03 11:40:17;;;;;;;3.35;1.52;;;23.40;78.30;;;;;;4992964;28;20050;-80
2021/06/03 11:42:46;;;;;;;5.38;1.90;;;23.20;80.50;;;;;;5009707;28;20050;-79
2021/06/03 11:45:25;;;;;;;4.43;1.80;;;22.90;82.40;;;;;;5009891;28;20399;-79
2021/06/03 11:48:34;;;;;;;4.05;1.60;;;22.70;84.40;;;;;;5010627;28;20140;-80
2021/06/03 11:51:10;;;;;;;3.10;1.60;;;22.50;86.10;;;;;;4930912;29;20056;-78
2021/06/03 11:53:53;;;;;;;2.88;1.40;;;22.40;86.30;;;;;;4931402;29;20055;-79
2021/06/03 11:56:21;;;;;;;2.85;1.33;;;22.30;87.50;;;;;;4984590;28;20129;-79
2021/06/03 11:58:52;;;;;;;2.92;1.50;;;22.30;88.60;;;;;;5010589;28;20115;-80
2021/06/03 12:01:36;;;;;;;4.22;1.75;;;22.30;89.50;;;;;;5010425;28;20050;-79
2021/06/03 12:04:18;;;;;;;3.67;1.52;;;22.40;90.50;;;;;;5010306;28;20137;-79
2021/06/03 12:06:50;;;;;;;3.88;1.60;;;22.50;90.40;;;;;;5010474;28;20144;-79
2021/06/03 12:09:31;;;;;;;3.63;1.60;;;22.50;90.50;;;;;;5009970;28;20129;-78
2021/06/03 12:12:00;;;;;;;3.35;1.30;;;22.60;90.70;;;;;;5010728;28;20046;-79
2021/06/03 12:14:29;;;;;;;3.25;1.38;;;22.60;90.80;;;;;;5014617;28;20081;-79
2021/06/03 12:16:58;;;;;;;4.45;1.35;;;22.70;90.70;;;;;;5014794;28;20081;-80
2021/06/03 12:19:27;;;;;;;4.13;1.30;;;22.70;90.80;;;;;;5013708;28;20145;-81
2021/06/03 12:21:59;;;;;;;3.30;1.45;;;22.70;91.10;;;;;;5010212;28;20042;-79
2021/06/03 12:24:38;;;;;;;9.50;1.40;;;22.80;91.30;;;;;;5006429;28;20125;-78
2021/06/03 12:27:08;;;;;;;3.13;1.30;;;22.80;91.20;;;;;;5014381;28;20084;-79
2021/06/03 12:29:35;;;;;;;4.15;1.10;;;23.00;91.00;;;;;;5013853;28;20129;-78
2021/06/03 12:32:04;;;;;;;2.45;1.30;;;23.20;90.90;;;;;;5014932;28;20084;-80
2021/06/03 12:34:32;;;;;;;3.55;1.58;;;23.30;90.60;;;;;;5014065;28;20471;-77
2021/06/03 12:37:00;;;;;;;2.72;1.30;;;23.50;90.50;;;;;;5014887;28;20117;-79
2021/06/03 12:39:37;;;;;;;4.55;2.28;;;23.70;90.40;;;;;;5008618;28;20453;-76
2021/06/03 12:42:04;;;;;;;4.90;2.60;;;23.80;90.10;;;;;;5012902;28;20053;-79
2021/06/03 12:44:31;;;;;;;4.25;2.17;;;24.00;89.40;;;;;;5011519;28;20136;-78
2021/06/03 12:47:00;;;;;;;4.97;2.08;;;24.00;89.70;;;;;;5020138;28;20068;-77
2021/06/03 12:49:29;;;;;;;3.08;1.70;;;24.00;90.10;;;;;;5014062;28;20502;-78
2021/06/03 12:52:00;;;;;;;3.78;1.60;;;24.10;90.60;;;;;;5014011;28;20073;-76
2021/06/03 12:54:32;;;;;;;3.83;1.50;;;24.20;90.40;;;;;;4995331;28;20137;-79
2021/06/03 12:57:03;;;;;;;3.17;1.48;;;24.20;90.40;;;;;;5008320;28;20049;-78
2021/06/03 12:59:33;;;;;;;3.13;1.50;;;24.30;90.00;;;;;;5012837;28;20057;-77
2021/06/03 13:02:04;;;;;;;2.95;1.48;;;24.30;90.20;;;;;;4996050;28;20054;-80
2021/06/03 13:04:36;;;;;;;3.30;1.27;;;24.30;90.50;;;;;;5013328;28;20057;-78
2021/06/03 13:07:05;;;;;;;3.33;1.63;;;24.50;91.00;;;;;;5000200;28;20042;-81
2021/06/03 13:09:32;;;;;;;2.30;1.20;;;24.60;90.70;;;;;;5013080;28;20135;-78
2021/06/03 13:12:06;;;;;;;3.53;1.60;;;24.70;89.70;;;;;;5013495;28;20132;-78
2021/06/03 13:14:39;;;;;;;3.20;1.63;;;24.60;89.50;;;;;;5013499;28;20085;-78
2021/06/03 13:17:09;;;;;;;2.47;1.20;;;24.60;90.20;;;;;;5013538;28;20882;-82
2021/06/03 13:19:37;;;;;;;3.60;1.40;;;24.60;88.90;;;;;;5014418;28;20053;-80
2021/06/03 13:22:07;;;;;;;2.72;1.38;;;24.50;88.40;;;;;;5009829;28;20133;-77
2021/06/03 13:24:37;;;;;;;2.70;1.30;;;24.50;88.10;;;;;;5010285;28;20469;-77
2021/06/03 13:27:08;;;;;;;5.28;1.40;;;24.40;82.30;;;;;;5011915;28;20430;-79
2021/06/03 13:29:40;;;;;;;3.63;1.80;;;24.20;82.60;;;;;;5013144;28;20438;-79
2021/06/03 13:32:08;;;;;;;4.60;1.80;;;23.90;84.60;;;;;;5000475;28;20445;-80
2021/06/03 13:34:38;;;;;;;3.00;1.40;;;23.80;86.20;;;;;;5015795;28;20132;-79
2021/06/03 13:37:13;;;;;;;3.88;1.40;;;23.60;86.10;;;;;;5022723;28;20042;-79
2021/06/03 13:39:43;;;;;;;4.15;1.45;;;23.50;86.80;;;;;;5005307;28;20486;-77
2021/06/03 13:42:19;;;;;;;2.72;1.33;;;23.50;87.40;;;;;;5007959;28;20146;-80
2021/06/03 13:44:53;;;;;;;3.30;1.30;;;23.40;87.40;;;;;;5012491;28;20089;-76
2021/06/03 13:47:40;;;;;;;2.60;1.20;;;23.30;87.70;;;;;;5015622;28;20069;-80
2021/06/03 13:50:28;;;;;;;4.10;1.60;;;23.30;88.70;;;;;;5019693;28;20183;-77
2021/06/03 13:52:59;;;;;;;3.70;1.90;;;23.30;88.40;;;;;;5018234;28;20080;-80
2021/06/03 13:55:29;;;;;;;3.17;1.50;;;23.30;88.40;;;;;;5025760;28;20048;-80
2021/06/03 13:57:56;;;;;;;3.75;1.73;;;23.30;88.30;;;;;;5018073;28;20555;-78
2021/06/03 14:00:35;;;;;;;3.03;1.60;;;23.20;88.60;;;;;;5019290;28;20144;-77
2021/06/03 14:03:12;;;;;;;6.03;3.30;;;23.30;89.10;;;;;;5018612;28;20082;-77
2021/06/03 14:05:43;;;;;;;5.75;2.28;;;23.30;89.70;;;;;;5015550;28;20137;-78
2021/06/03 14:08:17;;;;;;;3.67;1.88;;;23.30;90.00;;;;;;5005763;28;20096;-80
2021/06/03 14:11:33;;;;;;;3.80;1.70;;;23.40;90.40;;;;;;5011923;28;20085;-76
2021/06/03 14:14:05;;;;;;;3.30;1.60;;;23.50;90.70;;;;;;5011868;28;20497;-78
2021/06/03 14:16:52;;;;;;;3.95;1.30;;;23.60;91.00;;;;;;5011322;28;20054;-78
2021/06/03 14:19:24;;;;;;;4.00;1.50;;;23.70;91.20;;;;;;5013168;28;20053;-77
2021/06/03 14:22:03;;;;;;;3.35;1.65;;;23.70;90.70;;;;;;5011180;28;20132;-78
2021/06/03 14:24:36;;;;;;;3.78;1.50;;;23.80;90.50;;;;;;5011533;28;20050;-77
2021/06/03 14:27:20;;;;;;;4.07;1.75;;;23.80;89.80;;;;;;5008033;28;20158;-78
2021/06/03 14:29:58;;;;;;;3.75;1.48;;;23.90;88.70;;;;;;4999725;28;20144;-78
2021/06/03 14:32:29;;;;;;;4.13;1.20;;;23.90;88.50;;;;;;5006316;28;20136;-78
2021/06/03 14:35:11;;;;;;;2.80;1.30;;;24.00;88.50;;;;;;5005103;28;20133;-79
2021/06/03 14:37:40;;;;;;;3.90;1.38;;;24.00;85.90;;;;;;5003583;28;20046;-79
2021/06/03 14:40:17;;;;;;;3.88;1.77;;;24.10;84.90;;;;;;5008074;28;20730;-77
2021/06/03 14:42:45;;;;;;;2.90;1.25;;;24.20;83.50;;;;;;5011657;28;20118;-79
2021/06/03 14:45:24;;;;;;;2.50;1.15;;;24.20;82.50;;;;;;5014746;28;20463;-79
2021/06/03 14:47:51;;;;;;;3.10;1.00;;;24.30;82.20;;;;;;5019121;28;20078;-78
2021/06/03 14:50:21;;;;;;;2.45;1.00;;;24.40;81.30;;;;;;5014545;28;20156;-79
2021/06/03 14:52:50;;;;;;;2.90;1.17;;;24.50;79.80;;;;;;4996959;28;20134;-76
2021/06/03 14:55:21;;;;;;;5.05;2.78;;;24.70;79.90;;;;;;5014835;28;20077;-77
2021/06/03 14:57:49;;;;;;;5.53;2.85;;;24.80;80.70;;;;;;5017294;28;20092;-79
2021/06/03 15:00:20;;;;;;;6.68;3.60;;;25.10;82.20;;;;;;5000794;28;20053;-78
2021/06/03 15:02:49;;;;;;;3.65;1.50;;;25.50;84.60;;;;;;5015038;28;20038;-78
2021/06/03 15:05:16;;;;;;;2.65;1.17;;;26.10;82.40;;;;;;5013540;28;20061;-79
2021/06/03 15:07:45;;;;;;;5.53;1.73;;;26.60;78.80;;;;;;5012576;28;20136;-78
2021/06/03 15:10:16;;;;;;;2.60;1.02;;;27.00;78.60;;;;;;5016225;28;20144;-78
2021/06/03 15:12:45;;;;;;;3.10;1.25;;;27.40;77.60;;;;;;5015994;28;20109;-78
2021/06/03 15:15:16;;;;;;;2.63;1.08;;;27.70;77.30;;;;;;4999135;28;20049;-78
2021/06/03 15:17:45;;;;;;;2.85;1.40;;;28.10;74.90;;;;;;5016144;28;20137;-82
2021/06/03 15:20:16;;;;;;;2.28;1.10;;;28.50;72.20;;;;;;5015468;28;20049;-77
2021/06/03 15:22:43;;;;;;;3.00;1.30;;;28.80;69.00;;;;;;5014915;28;20060;-77
2021/06/03 15:25:14;;;;;;;2.90;1.20;;;29.10;66.30;;;;;;5011175;28;20411;-78
2021/06/03 15:27:41;;;;;;;3.17;1.38;;;29.10;65.30;;;;;;5015739;28;20465;-76
2021/06/03 15:30:14;;;;;;;3.60;1.52;;;29.40;65.20;;;;;;5014245;28;20058;-76
2021/06/03 15:35:09;;;;;;;4.53;1.92;;;29.90;62.40;;;;;;5136909;27;20479;-77
2021/06/03 15:37:37;;;;;;;8.20;3.75;;;30.10;61.50;;;;;;5091444;27;20040;-77
2021/06/03 15:40:07;;;;;;;10.65;5.20;;;30.20;61.10;;;;;;5091595;28;20127;-81
2021/06/03 15:42:34;;;;;;;8.18;3.40;;;30.40;60.70;;;;;;5093030;28;20441;-78
2021/06/03 15:45:01;;;;;;;6.20;3.22;;;30.40;59.30;;;;;;5107005;28;20139;-80
2021/06/03 15:47:27;;;;;;;3.50;1.85;;;30.20;59.10;;;;;;5110778;28;20219;-79
2021/06/03 15:49:54;;;;;;;3.63;1.40;;;30.20;59.30;;;;;;5111305;28;20659;-79
2021/06/03 15:52:22;;;;;;;2.60;1.27;;;30.10;58.90;;;;;;5110261;28;20044;-78
2021/06/03 15:54:51;;;;;;;3.53;1.75;;;29.90;59.00;;;;;;5110986;28;20560;-79
2021/06/03 15:57:18;;;;;;;3.58;1.42;;;29.70;59.20;;;;;;5108992;28;20172;-79
2021/06/03 15:59:45;;;;;;;4.63;1.60;;;29.40;59.60;;;;;;5110002;28;20177;-78
2021/06/03 16:02:12;;;;;;;2.80;1.30;;;29.20;60.40;;;;;;5109611;28;20126;-79
2021/06/03 16:04:39;;;;;;;2.85;1.20;;;29.00;60.80;;;;;;5110806;28;20075;-76
2021/06/03 16:07:06;;;;;;;3.50;1.50;;;28.70;60.20;;;;;;5111140;28;20119;-79
2021/06/03 16:09:34;;;;;;;3.08;1.40;;;28.40;61.30;;;;;;5110493;28;20147;-77
2021/06/03 16:12:02;;;;;;;4.15;1.80;;;28.10;63.70;;;;;;5110152;28;20127;-79
2021/06/03 16:14:29;;;;;;;2.83;1.60;;;27.80;64.40;;;;;;5101500;28;20139;-78
2021/06/03 16:22:44;;;;;;;4.10;1.88;;;26.70;69.60;;;;;;5143755;27;20354;-79
2021/06/03 16:25:13;;;;;;;3.63;1.70;;;26.30;72.50;;;;;;5087864;28;20139;-79
2021/06/03 16:27:42;;;;;;;4.38;1.65;;;26.10;74.60;;;;;;5085416;28;20128;-77
2021/06/03 16:30:18;;;;;;;3.65;1.70;;;25.80;76.30;;;;;;5073339;28;20383;-79
2021/06/03 16:32:45;;;;;;;3.25;1.70;;;25.60;77.20;;;;;;5077760;28;20056;-79
2021/06/03 16:35:12;;;;;;;4.40;1.73;;;25.40;77.40;;;;;;5077173;28;20056;-78
2021/06/03 16:37:38;;;;;;;4.40;1.60;;;25.20;77.90;;;;;;5071840;28;20131;-78
2021/06/03 16:40:09;;;;;;;4.43;1.65;;;25.20;77.10;;;;;;5083133;28;20128;-78
2021/06/03 16:42:36;;;;;;;3.35;1.55;;;25.10;78.00;;;;;;5081789;28;20044;-78
2021/06/03 16:45:07;;;;;;;4.55;1.88;;;25.00;78.40;;;;;;5079965;28;20124;-79
2021/06/03 16:47:34;;;;;;;4.47;1.67;;;24.90;78.50;;;;;;5080175;28;20155;-77
2021/06/03 16:50:02;;;;;;;4.35;1.52;;;24.80;78.20;;;;;;5077832;28;20139;-79
2021/06/03 16:52:28;;;;;;;3.63;1.42;;;24.70;79.40;;;;;;5071065;28;20047;-78
2021/06/03 16:54:55;;;;;;;5.82;1.70;;;24.60;80.00;;;;;;5071147;28;20131;-80
2021/06/03 16:57:23;;;;;;;3.92;1.65;;;24.50;79.50;;;;;;5071147;28;20458;-79
2021/06/03 16:59:50;;;;;;;3.00;1.40;;;24.40;79.00;;;;;;5080171;28;20045;-78
2021/06/03 17:02:16;;;;;;;3.63;1.40;;;24.40;79.30;;;;;;5069530;28;20538;-78
2021/06/03 17:04:44;;;;;;;2.83;1.40;;;24.30;80.00;;;;;;5070051;28;20098;-77
2021/06/03 17:07:11;;;;;;;3.03;1.40;;;24.30;80.50;;;;;;5078660;28;20044;-79
2021/06/03 17:09:37;;;;;;;2.75;1.40;;;24.30;81.20;;;;;;5072425;28;20208;-79
2021/06/03 17:12:05;;;;;;;3.13;1.50;;;24.30;81.70;;;;;;5082701;28;20131;-76
2021/06/03 17:14:33;;;;;;;4.18;1.27;;;24.30;81.60;;;;;;5089566;28;20086;-80
2021/06/03 17:17:00;;;;;;;3.95;1.73;;;24.30;81.80;;;;;;5082231;28;20528;-77
2021/06/03 17:19:27;;;;;;;2.72;1.55;;;24.20;82.30;;;;;;5071935;28;20127;-78
2021/06/03 17:21:53;;;;;;;2.97;1.55;;;24.20;82.80;;;;;;5082973;28;20052;-78
2021/06/03 17:24:20;;;;;;;3.50;1.40;;;24.20;83.20;;;;;;5077003;28;20481;-79
2021/06/03 17:26:46;;;;;;;2.97;1.30;;;24.20;83.60;;;;;;5076899;28;20048;-76
2021/06/03 17:29:14;;;;;;;2.72;1.30;;;24.30;84.20;;;;;;5088416;28;20131;-79
2021/06/03 17:31:43;;;;;;;2.67;1.48;;;24.20;84.70;;;;;;5073114;28;20044;-79
2021/06/03 17:34:10;;;;;;;3.95;1.20;;;24.20;85.50;;;;;;5064311;28;20127;-79
2021/06/03 17:36:36;;;;;;;2.85;1.40;;;24.30;86.80;;;;;;5055950;28;20556;-79
2021/06/03 17:39:05;;;;;;;3.15;1.60;;;24.20;86.60;;;;;;5055781;28;20573;-78
2021/06/03 17:41:34;;;;;;;3.55;2.08;;;24.20;87.30;;;;;;5055438;28;20143;-78
2021/06/03 17:44:01;;;;;;;4.20;2.20;;;24.20;88.80;;;;;;5067721;28;20401;-79
2021/06/03 17:46:28;;;;;;;4.70;1.90;;;24.00;90.50;;;;;;5067146;28;20140;-79
2021/06/03 17:48:56;;;;;;;4.28;1.88;;;23.90;91.10;;;;;;5071210;28;20044;-78
2021/06/03 17:51:22;;;;;;;3.90;1.60;;;23.80;91.50;;;;;;5071803;28;20135;-79
2021/06/03 17:53:49;;;;;;;2.70;1.52;;;23.70;91.80;;;;;;5071003;28;20127;-77
2021/06/03 17:56:15;;;;;;;2.80;1.50;;;23.60;91.70;;;;;;5070925;28;20048;-79
2021/06/03 17:58:42;;;;;;;2.97;1.48;;;23.60;91.50;;;;;;5070775;28;20127;-79
2021/06/03 18:01:09;;;;;;;3.65;1.65;;;23.50;91.70;;;;;;5059375;28;20490;-78
2021/06/03 18:03:35;;;;;;;2.47;1.40;;;23.60;91.80;;;;;;5070955;28;20183;-80
2021/06/03 18:06:04;;;;;;;3.38;1.48;;;23.60;91.90;;;;;;5070647;28;20106;-79
2021/06/03 18:08:30;;;;;;;3.95;1.50;;;23.50;92.00;;;;;;5070989;28;20449;-80
2021/06/03 18:10:58;;;;;;;2.95;1.45;;;23.50;92.20;;;;;;5070943;28;20040;-80
2021/06/03 18:13:26;;;;;;;5.55;2.10;;;23.50;92.40;;;;;;5070813;28;20489;-79
2021/06/03 18:15:53;;;;;;;3.15;1.63;;;23.40;92.40;;;;;;5070858;28;20131;-79
2021/06/03 18:18:20;;;;;;;3.13;1.60;;;23.40;92.50;;;;;;5070311;28;20044;-79